Loisir ou Compétition : Rejoignez un Club de la Fédération

Résultats

COUPE DE BRONZE U 12

MANIGOD

GS Hommes

Jury de Compétition

Délégué Technique :
PERILLAT BOITEUX DAVID (MB)
Arbitre :
PAROIS STEPHANE (MB)
Assistant :
 
Dir. Epreuve :
GARIN ALEXIS (MB)

Caractéristiques de la Piste

Piste :
GRAND CRET
Départ :
1630
Arrivée :
1470
Dénivelé :
160
Homologation :
2397/11/08

Manche 1

Nombre de Portes :
28
Heure de Départ :
10.15
Traceur :
PAROIS STEPHANE (MB)
Ouvreurs A :
PESSEY SAMUEL (MB)
Ouvreurs B :
CHARAUX MAELLE (MB)
Ouvreurs C :
COHENDET ARTHUR (MB)
Ouvreurs D :
 
Ouvreurs E :
 
Temps :
gris
Neige :
douce

Manche 2

Nombre de Portes :
28
Heure de Départ :
12.45
Traceur :
PAROIS STEPHANE (MB)
Ouvreurs A :
PESSEY SAMUEL (MB)
Ouvreurs B :
RIGAL GAUTIER (MB)
Ouvreurs C :
VEYRAT DUREBEX KELLY (MB)
Ouvreurs D :
 
Ouvreurs E :
 
Température Départ :
 
Température Arrivée :
1

Pénalité Appliquée :
255.0000

Catégorie :
U12
Clt Dos Clt/Cat Code An Nom Prénom Com Club Tps M1 Tps M2 Tps Tot Pts
Classés
1 99 1/U12 FFS2652723 2002 GOUTHARD ELIOTT MB CS MANIGOD 43.57 44.70 1:28.27 255.00
2 106 2/U12 FFS2665830 2002 BLANC GARIN LOUIS MB CS MANIGOD 43.49 45.02 1:28.51 257.42
3 128 3/U12 FFS2651606 2002 ANTHOINE MILHOMME ALBAN MB SC GD BORNAN 45.08 43.83 1:28.91 261.45
4 103 4/U12 FFS2651718 2002 PERRILLAT MERCEROT ADRIEN MB SC GD BORNAN 44.03 45.12 1:29.15 263.87
5 140 5/U12 FFS2652621 2002 GOUIFFES ATHAN MB SC GD BORNAN 44.70 44.65 1:29.35 265.89
6 80 6/U12 FFS2651717 2002 RACINEUX BASTIEN MB ANNECY SEMNO 44.29 45.13 1:29.42 266.60
7 82 7/U12 FFS2651289 2002 ROGUE BASILE MB CS MANIGOD 44.58 45.12 1:29.70 269.42
8 147 8/U12 FFS2643989 2002 ARDIN JUSTIN MB CS LA CLUSAZ 44.91 44.90 1:29.81 270.53
9 153 9/U12 FFS2652214 2002 THIENNARD THEO MB SC GD BORNAN 45.06 45.00 1:30.06 273.05
10 131 10/U12 FFS2660818 2002 POCHAT LOUIS MB ANNECY SEMNO 45.06 45.06 1:30.12 273.65
11 148 11/U12 FFS2651233 2002 PERRILLAT AMEDE EVAN MB SC GD BORNAN 45.62 44.84 1:30.46 277.08
12 127 12/U12 FFS2643840 2002 POUVEL LOUIS MB CS LA CLUSAZ 45.00 45.57 1:30.57 278.19
13 152 13/U12 FFS2656501 2002 BALAY AUGUSTIN MB ANNECY SEMNO 45.63 45.57 1:31.20 284.54
14 92 14/U12 FFS2664840 2002 GRAY BARNABY MB ANNECY SEMNO 44.74 46.47 1:31.21 284.64
15 112 15/U12 FFS2655809 2002 JOSSERAND HUGO MB COMP SEVRIER 45.23 45.99 1:31.22 284.74
16 95 16/U12 FFS2651241 2002 BASTARD ROSSET MAX MB SC GD BORNAN 45.25 46.11 1:31.36 286.16
17 120 17/U12 FFS2656516 2002 SIMON GWENAEL MB ANNECY SEMNO 45.72 45.89 1:31.61 288.68
18 89 18/U12 FFS2651296 2002 TREMULOT VINCENT MB CS MANIGOD 45.44 46.26 1:31.70 289.58
19 154 19/U12 FFS2659221 2002 FOURNIER BIDOZ BENJAMIN MB CS LA CLUSAZ 45.35 46.40 1:31.75 290.09
20 162 20/U12 FFS2651713 2002 GARREAU THEO MB ANNECY SEMNO 46.17 45.75 1:31.92 291.80
21 66 21/U12 FFS2641990 2002 CUVEILLIER NICOLAS MB CS ANNECY VX 45.27 46.87 1:32.14 294.02
22 121 22/U12 FFS2656814 2003 LOUBET JOSEPH MB CS MANIGOD 45.64 46.89 1:32.53 297.95
23 101 23/U12 FFS2656052 2003 JANET LEON MB ANCY SALOMON 45.95 46.64 1:32.59 298.56
24 62 24/U12 FFS2654431 2003 DEMONT ELOI MB CS MANIGOD 46.12 46.50 1:32.62 298.86
25 139 25/U12 FFS2654424 2003 VAUGHTON STANLEY MB CS MANIGOD 46.56 46.12 1:32.68 299.46
26 118 26/U12 FFS2656621 2003 BASTARD ROSSET MATHIS MB SC GD BORNAN 46.18 46.51 1:32.69 299.57
27 143 27/U12 FFS2652511 2002 WOEHRLEN PABLO MB SC GD BORNAN 46.49 46.43 1:32.92 301.88
28 149 28/U12 FFS2645441 2002 TAPPY NICOLAS MB CS LA CLUSAZ 46.31 46.94 1:33.25 305.21
29 76 29/U12 FFS2651245 2003 SEIMETZ LUCAS MB CS LA CLUSAZ 46.09 47.40 1:33.49 307.63
30 83 30/U12 FFS2648709 2003 BERTONE LOUIS MB CS LA CLUSAZ 46.42 47.34 1:33.76 310.35
31 123 31/U12 FFS2657717 2003 ORMOND CHARLIE MB SC GD BORNAN 45.97 48.04 1:34.01 312.87
32 117 32/U12 FFS2650206 2003 THEVENET THOMAS MB CS LA CLUSAZ 46.27 48.03 1:34.30 315.80
33 71 33/U12 FFS2656514 2003 [I]PETITJEAN LOIC MB CS LA CLUSAZ 46.36 48.22 1:34.58 318.62
34 90 34/U12 FFS2654070 2002 BAHUREL BENJAMIN MB ANNECY SEMNO 46.76 48.06 1:34.82 321.04
35 73 35/U12 FFS2654427 2003 BLANC GARIN ALEC MB CS MANIGOD 47.73 47.18 1:34.91 321.95
36 75 36/U12 FFS2648711 2003 COLLOMB PATTON ENZO MB CS LA CLUSAZ 46.90 48.42 1:35.32 326.08
37 126 37/U12 FFS2654412 2003 PONS HUGO MB CS LA CLUSAZ 47.31 48.05 1:35.36 326.49
38 63 38/U12 FFS2665457 2003 VEYRAT DUREBEX KILIAN MB CS MANIGOD 46.89 48.49 1:35.38 326.69
39 61 39/U12 FFS2656508 2003 GONIN MAXENCE MB ANNECY SEMNO 46.70 48.82 1:35.52 328.10
40 161 40/U12 FFS2655811 2003 MEYER EDGAR MB COMP SEVRIER 48.28 47.43 1:35.71 330.02
41 79 41/U12 FFS2667530 2002 FONTVIEILLE JULES MB ASPTT ANNECY 47.70 49.50 1:37.20 345.04
42 86 42/U12 FFS2656513 2002 MATHIEU KERIAN MB ANNECY SEMNO 48.01 49.37 1:37.38 346.85
43 113 43/U12 FFS2657795 2003 CAILLY MATHEO MB SC GD BORNAN 48.63 49.52 1:38.15 354.62
44 72 44/U12 FFS2666509 2002 LEVERT VALENTIN MB ANCY SALOMON 48.53 50.11 1:38.64 359.56
45 138 45/U12 FFS2660359 2002 LUGAZ ALEXIS MB CS ANNECY VX 49.78 49.40 1:39.18 365.00
46 93 46/U12 FFS2656055 2003 ARBOIREAU TIMOTHEE MB ANCY SALOMON 48.57 50.91 1:39.48 368.03
47 94 47/U12 FFS2667142 2002 DUNOYER MARIUS MB SEYTHENEX 49.24 50.40 1:39.64 369.64
48 134 48/U12 FFS2654753 2003 CHAIX EDGAR MB COMP SEVRIER 49.57 50.13 1:39.70 370.25
49 141 49/U12 FFS2656502 2002 BENAND JACQUES MB ANNECY SEMNO 49.98 49.84 1:39.82 371.46
50 88 50/U12 FFS2654426 2003 BARONE ALEXIS MB CS MANIGOD 49.92 50.03 1:39.95 372.77
51 111 51/U12 FFS2651287 2002 MARULIER JORIS MB CS MANIGOD 53.69 46.48 1:40.17 374.98
52 114 52/U12 FFS2662994 2002 DEBOISSY PAUL MB ANNECY SEMNO 50.25 50.63 1:40.88 382.14
53 159 53/U12 FFS2660353 2002 BARDET CLEMENT MB CS ANNECY VX 52.42 48.69 1:41.11 384.46
54 122 54/U12 FFS2664057 2003 BLANCHET NICOUD JUSTIN MB ASO NTN-SNR 50.06 51.19 1:41.25 385.87
55 144 55/U12 FFS2654422 2003 RIGAL MARTIN MB CS MANIGOD 50.88 50.39 1:41.27 386.08
56 151 56/U12 FFS2657089 2003 VAUTHIER ALEXIS MB COMP SEVRIER 51.53 50.91 1:42.44 397.87
57 146 57/U12 FFS2655705 2003 MOREAU LAURICK MB ASPTT ANNECY 47.66 54.86 1:42.52 398.68
58 130 58/U12 FFS2655703 2003 MOURIE KEVIN MB ASPTT ANNECY 50.54 52.11 1:42.65 399.99
59 163 59/U12 FFS2668860 2002 BETEND HUGO MB SEYTHENEX 50.72 52.05 1:42.77 401.20
60 64 60/U12 FFS2660817 2002 PARACUELLOS MAEL MB ANNECY SEMNO 50.12 52.68 1:42.80 401.50
61 132 61/U12 FFS2666093 2002 BEZZI LORIS MB CS ANNECY VX 51.15 51.97 1:43.12 404.73
62 145 62/U12 FFS2651796 2002 MUNNINGS HARRY MB SEYTHENEX 51.36 51.78 1:43.14 404.93
63 78 63/U12 FFS2662321 2003 CARQUEX MATISSE MB SEYTHENEX 50.76 53.62 1:44.38 417.43
64 135 64/U12 FFS2672936 2003 ROCHE COME MB ASPTT ANNECY 52.37 52.56 1:44.93 422.98
65 96 65/U12 FFS2671577 2003 DOMARADZKI REMI MB ASO NTN-SNR 51.41 53.64 1:45.05 424.19
66 158 66/U12 FFS2672464 2002 FORLI TOM MB CS VILLAZ 53.11 52.42 1:45.53 429.03
67 125 67/U12 FFS2655814 2003 GONDA MARTIN MB COMP SEVRIER 52.95 53.43 1:46.38 437.60
68 74 68/U12 FFS2672893 2002 MEYNET SAMUEL MB CS VILLAZ 53.00 54.21 1:47.21 445.97
69 70 69/U12 FFS2656266 2003 QUESADA ABILIO MB ASO NTN-SNR 53.42 54.07 1:47.49 448.79
70 142 70/U12 FFS2652587 2002 LE QUELLEC RONAN MB SEYTHENEX 48.09 59.87 1:47.96 453.53
71 67 71/U12 FFS2656042 2003 COLANTONI NOLAN MB ASO NTN-SNR 52.77 55.29 1:48.06 454.54
72 150 72/U12 FFS2658851 2003 DUGGAN LEONARD MB ANNECY SEMNO 53.00 55.10 1:48.10 454.94
73 136 73/U12 FFS2666674 2003 VILLARET GASPARD MB SEYTHENEX 54.20 54.16 1:48.36 457.56
74 85 74/U12 FFS2656045 2003 REIGNIER MAXENCE MB ANNECY SEMNO 53.59 55.82 1:49.41 468.15
75 68 75/U12 FFS2656161 2003 BONVALOT EVAN MB ANCY SALOMON 53.34 56.33 1:49.67 470.77
76 115 76/U12 FFS2670872 2002 COLLOMBIER ZIAN MB SEYTHENEX 54.81 55.97 1:50.78 481.96
77 124 77/U12 FFS2656506 2003 GENOUD PRACHEX YANIS MB ANNECY SEMNO 54.27 56.96 1:51.23 486.50
78 81 78/U12 FFS2656797 2003 WIKLACZ ALAIN MB SEYTHENEX 58.11 53.26 1:51.37 487.91
79 102 79/U12 FFS2660723 2003 REYNAUD LOUIS MB ANNECY SEMNO 56.61 56.97 1:53.58 510.19
80 156 80/U12 FFS2665940 2002 MALLEVRE BAPTISTE MB COMP SEVRIER 50.27 1:03.77 1:54.04 514.83
81 65 81/U12 FFS2673740 2003 JOUBERT ALEWYN MB SEYTHENEX 56.79 1:01.40 1:58.19 556.67
82 157 82/U12 FFS2671651 2003 BOURGEOIS TIM MB SEYTHENEX 1:04.61 1:06.40 2:11.01 685.93
83 77 83/U12 FFS2647287 2002 JANET TIAGO MB CS LA CLUSAZ 44.09 1:27.38 2:11.47 690.57
Abandons
84 FFS2645523 2002 COMMENE THEO MB ANNECY SEMNO 45.50
91 FFS2657109 2003 CADOUX CORENTIN MB COMP SEVRIER 54.08
97 FFS2649828 2002 NICOT ANTHONIN MB ASPTT ANNECY 49.30
98 FFS2656509 2003 LARRAZET LUC MB ANNECY SEMNO 51.34
100 FFS2660360 2002 MULOT SCHEFFNER ALEXIS MB CS ANNECY VX 52.41
107 FFS2651318 2002 BRAY PAUL MB CS VILLAZ 49.66
108 FFS2664471 2003 WAUQUIER CHARLES MB COMP SEVRIER 49.99
110 FFS2656044 2003 MISSILIER BENOIT MB ASO NTN-SNR
116 FFS2654430 2003 CARMICHAEL FINN MB CS MANIGOD 45.31
119 FFS2648720 2003 MARCHAND ALLAN MB CS LA CLUSAZ 46.55
129 FFS2666096 2003 WEILL SEBASTIEN MB CS ANNECY VX 55.78
133 FFS2642450 2002 PONS RAMELLS MATTEO MB SC GD BORNAN 48.17
137 FFS2658493 2003 PASSET PAUL MB CS MANIGOD 46.76
160 FFS2658609 2003 PERNET JULES MB SC GD BORNAN 46.96
Disqualifiés
69 FFS2666673 2003 REITTER THEODORE MB SEYTHENEX 54.18
155 FFS2657531 2003 DURAND ROBIN MB SEYTHENEX
Non partants
87 FFS2651134 2002 BESSIERE VICTOR MB SC GD BORNAN
104 FFS2652320 2002 DUPONT ALEXANDRE MB SEYTHENEX
105 FFS2648704 2002 CARBONI ALEXANDRE MB CS LA CLUSAZ
109 FFS2666738 2002 CHAIX KERYAN MB COMP SEVRIER 48.10